Time;durP1;ratioP1;P1;durP2;ratioP2;P2;SDS_P1;SDS_P2;PMS_P1;PMS_P2;Temp;Humidity;BMP_temperature;BMP_pressure;BME280_temperature;BME280_humidity;BME280_pressure;Samples;Min_cycle;Max_cycle;Signal;HPM_P1;HPM_P2
2021/08/29 00:01:52;;;;;;;3.67;3.37;;;12.50;99.90;;;;;;1889035;76;21218;-77
2021/08/29 00:04:18;;;;;;;3.77;3.37;;;12.50;99.90;;;;;;1889111;76;21529;-77
2021/08/29 00:06:44;;;;;;;5.67;3.10;;;12.50;99.90;;;;;;1889025;76;21495;-77
2021/08/29 00:09:10;;;;;;;3.77;3.33;;;12.50;99.90;;;;;;1889185;76;21501;-77
2021/08/29 00:11:36;;;;;;;4.42;3.37;;;12.60;99.90;;;;;;1888988;76;21070;-77
2021/08/29 00:14:02;;;;;;;4.45;3.02;;;12.70;99.90;;;;;;1889189;76;21200;-77
2021/08/29 00:16:29;;;;;;;3.45;3.12;;;12.70;99.90;;;;;;1888990;76;21070;-77
2021/08/29 00:18:55;;;;;;;3.60;3.25;;;12.60;99.90;;;;;;1889116;76;21086;-77
2021/08/29 00:21:21;;;;;;;3.67;3.35;;;12.70;99.90;;;;;;1889199;76;21452;-77
2021/08/29 00:23:47;;;;;;;4.92;3.10;;;12.70;99.90;;;;;;1889031;76;21466;-77
2021/08/29 00:26:13;;;;;;;2.87;2.67;;;12.70;99.90;;;;;;1889108;76;21494;-77
2021/08/29 00:28:40;;;;;;;4.80;3.27;;;12.70;99.90;;;;;;1889116;76;21549;-77
2021/08/29 00:31:06;;;;;;;3.08;2.77;;;12.70;99.90;;;;;;1889091;76;21464;-77
2021/08/29 00:33:33;;;;;;;3.52;3.22;;;12.60;99.90;;;;;;1889079;76;21568;-77
2021/08/29 00:35:59;;;;;;;3.30;3.00;;;12.70;99.90;;;;;;1889108;76;21148;-77
2021/08/29 00:38:25;;;;;;;3.22;2.92;;;12.80;99.90;;;;;;1889101;76;21144;-76
2021/08/29 00:40:51;;;;;;;3.37;2.75;;;12.80;99.90;;;;;;1889226;76;21019;-77
2021/08/29 00:43:17;;;;;;;5.42;3.15;;;12.80;99.90;;;;;;1889114;76;21128;-77
2021/08/29 00:45:44;;;;;;;4.12;3.02;;;12.90;99.90;;;;;;1889093;76;21082;-77
2021/08/29 00:48:10;;;;;;;3.62;3.10;;;12.90;99.90;;;;;;1889086;76;21145;-76
2021/08/29 00:50:36;;;;;;;3.10;2.72;;;12.90;99.90;;;;;;1889151;76;21015;-77
2021/08/29 00:53:02;;;;;;;4.33;3.40;;;12.90;99.90;;;;;;1889122;76;21506;-77
2021/08/29 00:55:28;;;;;;;5.10;3.33;;;12.90;99.90;;;;;;1889094;76;21505;-76
2021/08/29 00:57:54;;;;;;;3.77;3.10;;;13.00;99.90;;;;;;1889122;75;21552;-77
2021/08/29 01:00:20;;;;;;;4.78;3.17;;;12.90;99.90;;;;;;1889070;76;21440;-77
2021/08/29 01:02:46;;;;;;;3.45;3.15;;;12.90;99.90;;;;;;1889028;76;21498;-77
2021/08/29 01:05:13;;;;;;;4.78;3.67;;;13.00;99.90;;;;;;1889084;76;21114;-77
2021/08/29 01:07:39;;;;;;;3.58;2.98;;;12.90;99.90;;;;;;1889058;76;21066;-77
2021/08/29 01:10:05;;;;;;;4.65;3.00;;;13.00;99.90;;;;;;1889062;76;21039;-77
2021/08/29 01:12:31;;;;;;;3.30;3.00;;;13.00;99.90;;;;;;1889067;76;21066;-77
2021/08/29 01:14:57;;;;;;;8.15;3.27;;;13.00;99.90;;;;;;1889094;76;21132;-77
2021/08/29 01:17:23;;;;;;;3.85;3.45;;;13.00;99.90;;;;;;1889057;76;21105;-77
2021/08/29 01:19:49;;;;;;;3.20;2.65;;;12.90;99.90;;;;;;1889107;76;21062;-77
2021/08/29 01:22:15;;;;;;;6.67;3.60;;;13.00;99.90;;;;;;1889171;76;21071;-77
2021/08/29 01:24:42;;;;;;;3.75;3.10;;;12.90;99.90;;;;;;1889192;76;21071;-76
2021/08/29 01:27:08;;;;;;;9.68;3.58;;;12.90;99.90;;;;;;1889138;76;21066;-77
2021/08/29 01:29:34;;;;;;;3.60;3.30;;;12.90;99.90;;;;;;1888999;76;21083;-77
2021/08/29 01:32:00;;;;;;;3.40;3.12;;;12.90;99.90;;;;;;1889151;76;21086;-77
2021/08/29 01:34:26;;;;;;;9.43;3.83;;;12.90;99.90;;;;;;1889028;76;21470;-77
2021/08/29 01:36:52;;;;;;;3.47;3.17;;;12.90;99.90;;;;;;1888986;75;21506;-76
2021/08/29 01:39:18;;;;;;;3.35;3.05;;;12.90;99.90;;;;;;1889074;76;21447;-76
2021/08/29 01:41:44;;;;;;;4.00;3.55;;;12.90;99.90;;;;;;1889160;76;21510;-76
2021/08/29 01:44:11;;;;;;;3.75;2.75;;;12.90;99.90;;;;;;1888980;76;21572;-77
2021/08/29 01:46:37;;;;;;;3.60;3.05;;;12.90;99.90;;;;;;1889245;76;21567;-76
2021/08/29 01:49:03;;;;;;;3.90;3.17;;;12.80;99.90;;;;;;1888939;75;21055;-77
2021/08/29 01:51:29;;;;;;;3.52;2.83;;;12.90;99.90;;;;;;1889185;76;21132;-77
2021/08/29 01:53:55;;;;;;;3.83;3.25;;;12.80;99.90;;;;;;1888973;76;21074;-77
2021/08/29 01:56:21;;;;;;;3.25;2.90;;;12.90;99.90;;;;;;1889167;75;21107;-77
2021/08/29 01:58:47;;;;;;;3.27;2.98;;;12.90;99.90;;;;;;1888946;76;21047;-76
2021/08/29 02:01:13;;;;;;;3.27;2.98;;;12.80;99.90;;;;;;1889160;76;21175;-77
2021/08/29 02:03:41;;;;;;;3.08;2.77;;;12.90;99.90;;;;;;1889065;76;21067;-77
2021/08/29 02:06:07;;;;;;;3.50;3.08;;;12.80;99.90;;;;;;1889256;76;21074;-77
2021/08/29 02:08:33;;;;;;;3.02;2.72;;;12.70;99.90;;;;;;1888977;76;21087;-77
2021/08/29 02:10:59;;;;;;;3.42;2.92;;;12.70;99.90;;;;;;1889124;75;21100;-77
2021/08/29 02:13:25;;;;;;;3.95;3.55;;;12.80;99.90;;;;;;1889064;76;21078;-77
2021/08/29 02:15:52;;;;;;;4.28;3.10;;;12.80;99.90;;;;;;1889139;76;21066;-77
2021/08/29 02:18:18;;;;;;;3.75;2.83;;;12.80;99.90;;;;;;1889027;76;21078;-77
2021/08/29 02:20:44;;;;;;;5.05;3.00;;;12.90;99.90;;;;;;1889141;76;21039;-76
2021/08/29 02:23:10;;;;;;;7.17;3.10;;;12.90;99.90;;;;;;1888960;76;21066;-77
2021/08/29 02:25:36;;;;;;;4.10;3.45;;;12.80;99.90;;;;;;1889084;76;21145;-77
2021/08/29 02:28:02;;;;;;;6.22;3.47;;;12.80;99.90;;;;;;1889076;76;21113;-77
2021/08/29 02:30:29;;;;;;;2.87;2.62;;;12.80;99.90;;;;;;1889017;76;21043;-77
2021/08/29 02:32:55;;;;;;;3.90;3.12;;;12.90;99.90;;;;;;1889131;76;21136;-77
2021/08/29 02:35:21;;;;;;;3.37;2.90;;;12.90;99.90;;;;;;1889077;75;21140;-77
2021/08/29 02:37:47;;;;;;;2.92;2.62;;;12.90;99.90;;;;;;1889056;76;21156;-77
2021/08/29 02:40:13;;;;;;;4.80;3.52;;;12.90;99.90;;;;;;1889134;76;21086;-77
2021/08/29 02:42:39;;;;;;;12.78;3.55;;;12.90;99.90;;;;;;1888959;76;21050;-77
2021/08/29 02:45:05;;;;;;;3.55;3.25;;;12.80;99.90;;;;;;1889091;76;21082;-77
2021/08/29 02:47:31;;;;;;;5.00;3.42;;;12.70;99.90;;;;;;1889015;76;21079;-77
2021/08/29 02:49:58;;;;;;;3.52;3.22;;;12.70;99.90;;;;;;1889212;76;21099;-77
2021/08/29 02:52:24;;;;;;;3.42;3.12;;;12.70;99.90;;;;;;1889038;76;21098;-77
2021/08/29 02:54:50;;;;;;;4.67;2.75;;;12.70;99.90;;;;;;1889273;75;21169;-76
2021/08/29 02:57:16;;;;;;;3.72;3.42;;;12.80;99.90;;;;;;1889162;76;21140;-77
2021/08/29 02:59:42;;;;;;;4.30;3.35;;;12.70;99.90;;;;;;1889150;76;21066;-77
2021/08/29 03:02:09;;;;;;;3.33;3.12;;;12.70;99.90;;;;;;1889132;76;21066;-77
2021/08/29 03:04:35;;;;;;;3.52;3.22;;;12.70;99.90;;;;;;1889239;76;21148;-77
2021/08/29 03:07:01;;;;;;;9.40;2.80;;;12.60;99.90;;;;;;1889237;76;21067;-77
2021/08/29 03:09:33;;;;;;;11.60;3.70;;;12.70;99.90;;;;;;1889158;75;21556;-77
2021/08/29 03:11:55;;;;;;;4.70;3.67;;;12.60;99.90;;;;;;1888667;75;21099;-77
2021/08/29 03:14:21;;;;;;;4.17;3.77;;;12.60;99.90;;;;;;1889157;76;21152;-76
2021/08/29 03:16:50;;;;;;;6.72;3.42;;;12.60;99.90;;;;;;1889254;75;21103;-77
2021/08/29 03:19:15;;;;;;;4.30;3.67;;;12.60;99.90;;;;;;1889031;75;21176;-77
2021/08/29 03:21:41;;;;;;;4.30;3.42;;;12.60;99.90;;;;;;1889229;76;21095;-77
2021/08/29 03:24:07;;;;;;;3.30;3.08;;;12.70;99.90;;;;;;1889237;76;21066;-76
2021/08/29 03:26:34;;;;;;;3.55;3.12;;;12.60;99.90;;;;;;1889130;76;21094;-77
2021/08/29 03:29:00;;;;;;;4.00;3.60;;;12.60;99.90;;;;;;1889128;76;21089;-76
2021/08/29 03:31:26;;;;;;;3.55;3.33;;;12.70;99.90;;;;;;1889107;76;21078;-76
2021/08/29 03:33:54;;;;;;;4.80;3.25;;;12.60;99.90;;;;;;1889123;75;21070;-76
2021/08/29 03:36:21;;;;;;;4.15;3.47;;;12.60;99.90;;;;;;1889036;75;21062;-76
2021/08/29 03:38:47;;;;;;;3.98;3.58;;;12.50;99.90;;;;;;1889194;76;21085;-76
2021/08/29 03:41:13;;;;;;;22.45;3.45;;;12.50;99.90;;;;;;1889134;76;21082;-76
2021/08/29 03:43:39;;;;;;;4.75;4.28;;;12.50;99.90;;;;;;1889208;76;21503;-76
2021/08/29 03:46:05;;;;;;;4.47;4.08;;;12.50;99.90;;;;;;1889123;76;21514;-76
2021/08/29 03:48:31;;;;;;;4.75;3.83;;;12.60;99.90;;;;;;1889244;76;21420;-76
2021/08/29 03:50:58;;;;;;;3.67;3.37;;;12.60;99.90;;;;;;1889137;76;21510;-76
2021/08/29 03:53:24;;;;;;;4.15;3.72;;;12.60;99.90;;;;;;1889082;76;21566;-76
2021/08/29 03:55:50;;;;;;;4.40;3.50;;;12.60;99.90;;;;;;1889130;76;21495;-76
2021/08/29 03:58:16;;;;;;;4.47;4.08;;;12.60;99.90;;;;;;1889128;76;21039;-76
2021/08/29 04:00:42;;;;;;;4.30;4.00;;;12.60;99.90;;;;;;1889125;76;21136;-75
2021/08/29 04:03:08;;;;;;;3.95;3.65;;;12.60;99.90;;;;;;1889113;76;21070;-75
2021/08/29 04:05:34;;;;;;;4.45;4.05;;;12.60;99.90;;;;;;1889148;75;21128;-76
2021/08/29 04:08:00;;;;;;;6.03;4.35;;;12.60;99.90;;;;;;1889143;76;21047;-75
2021/08/29 04:10:27;;;;;;;4.75;4.37;;;12.60;99.90;;;;;;1889095;76;21066;-76
2021/08/29 04:12:53;;;;;;;4.58;4.15;;;12.60;99.90;;;;;;1889222;76;21074;-76
2021/08/29 04:15:19;;;;;;;7.05;4.47;;;12.60;99.90;;;;;;1899028;73;21066;-76
2021/08/29 04:17:45;;;;;;;5.37;4.87;;;12.60;99.90;;;;;;1889251;76;21083;-76
2021/08/29 04:20:11;;;;;;;5.03;4.62;;;12.50;99.90;;;;;;1889231;76;21078;-76
2021/08/29 04:22:37;;;;;;;7.55;4.72;;;12.50;99.90;;;;;;1889228;76;21070;-76
2021/08/29 04:25:03;;;;;;;4.92;4.42;;;12.50;99.90;;;;;;1889255;75;21117;-76
2021/08/29 04:27:29;;;;;;;4.97;4.58;;;12.50;99.90;;;;;;1903100;74;21110;-76
2021/08/29 04:29:56;;;;;;;5.42;4.92;;;12.40;99.90;;;;;;1904365;74;21074;-76
2021/08/29 04:32:22;;;;;;;4.90;4.50;;;12.40;99.90;;;;;;1889112;76;21079;-76
2021/08/29 04:34:48;;;;;;;5.05;4.55;;;12.40;99.90;;;;;;1889113;76;21129;-76
2021/08/29 04:37:14;;;;;;;4.55;4.15;;;12.50;99.90;;;;;;1889131;76;21086;-76
2021/08/29 04:39:40;;;;;;;4.12;3.83;;;12.50;99.90;;;;;;1889143;76;21136;-76
2021/08/29 04:42:06;;;;;;;4.97;4.58;;;12.50;99.90;;;;;;1889133;76;21152;-76
2021/08/29 04:44:32;;;;;;;4.92;4.42;;;12.50;99.90;;;;;;1889436;76;21067;-76
2021/08/29 04:46:58;;;;;;;4.80;4.30;;;12.50;99.90;;;;;;1889152;76;21471;-76
2021/08/29 04:49:24;;;;;;;5.17;4.50;;;12.50;99.90;;;;;;1898829;74;21478;-76
2021/08/29 04:51:51;;;;;;;4.53;4.12;;;12.50;99.90;;;;;;1894335;74;21498;-77
2021/08/29 04:54:17;;;;;;;4.37;3.98;;;12.50;99.90;;;;;;1889077;76;21486;-76
2021/08/29 04:56:43;;;;;;;4.80;4.35;;;12.50;99.90;;;;;;1889117;76;21489;-76
2021/08/29 04:59:09;;;;;;;4.42;4.03;;;12.40;99.90;;;;;;1889043;75;21070;-76
2021/08/29 05:01:35;;;;;;;4.87;4.40;;;12.50;99.90;;;;;;1889088;76;21050;-76
2021/08/29 05:04:01;;;;;;;5.05;4.03;;;12.50;99.90;;;;;;1889107;76;21121;-77
2021/08/29 05:06:28;;;;;;;4.60;3.80;;;12.60;99.90;;;;;;1889094;76;21040;-76
2021/08/29 05:08:54;;;;;;;4.30;3.90;;;12.70;99.90;;;;;;1889061;76;21128;-76
2021/08/29 05:11:20;;;;;;;3.90;3.52;;;12.70;99.90;;;;;;1889101;76;21062;-77
2021/08/29 05:13:46;;;;;;;3.95;3.35;;;12.70;99.90;;;;;;1889071;76;21046;-77
2021/08/29 05:16:12;;;;;;;4.75;3.58;;;12.70;99.90;;;;;;1889183;76;21078;-77
2021/08/29 05:18:38;;;;;;;3.80;3.50;;;12.70;99.90;;;;;;1888990;76;21128;-77
2021/08/29 05:21:04;;;;;;;4.50;4.10;;;12.60;99.90;;;;;;1889265;76;21083;-77
2021/08/29 05:23:30;;;;;;;3.67;3.37;;;12.70;99.90;;;;;;1889092;75;21054;-77
2021/08/29 05:25:57;;;;;;;4.20;3.80;;;12.60;99.90;;;;;;1891490;75;21510;-77
2021/08/29 05:28:23;;;;;;;4.58;3.50;;;12.70;99.90;;;;;;1891460;76;21019;-77
2021/08/29 05:30:49;;;;;;;3.70;3.40;;;12.60;99.90;;;;;;1889091;76;21039;-77
2021/08/29 05:33:15;;;;;;;4.65;3.58;;;12.70;99.90;;;;;;1889065;76;21140;-77
2021/08/29 05:35:41;;;;;;;3.90;3.58;;;12.70;99.90;;;;;;1889152;76;21063;-76
2021/08/29 05:38:07;;;;;;;4.42;3.77;;;12.80;99.90;;;;;;1889257;76;21091;-77
2021/08/29 05:40:33;;;;;;;4.37;3.98;;;12.80;99.90;;;;;;1889290;76;21128;-77
2021/08/29 05:43:00;;;;;;;4.17;3.50;;;12.90;99.90;;;;;;1889280;76;21238;-76
2021/08/29 05:45:26;;;;;;;3.85;3.35;;;12.90;99.90;;;;;;1889309;76;21097;-76
2021/08/29 05:47:52;;;;;;;4.50;4.10;;;12.80;99.90;;;;;;1889047;76;21121;-77
2021/08/29 05:50:18;;;;;;;4.22;3.83;;;12.70;99.90;;;;;;1889204;76;21074;-77
2021/08/29 05:52:44;;;;;;;4.50;3.95;;;12.80;99.90;;;;;;1889033;76;21179;-77
2021/08/29 05:55:10;;;;;;;3.92;3.45;;;13.00;99.90;;;;;;1889218;76;21143;-77
2021/08/29 05:57:36;;;;;;;4.35;3.22;;;13.00;99.90;;;;;;1889046;76;21145;-77
2021/08/29 06:00:02;;;;;;;3.72;3.40;;;12.90;99.90;;;;;;1889179;76;21066;-77
2021/08/29 06:02:28;;;;;;;9.40;3.70;;;12.80;99.90;;;;;;1889010;76;21090;-77
2021/08/29 06:04:55;;;;;;;3.80;3.50;;;12.80;99.90;;;;;;1889188;75;21552;-77
2021/08/29 06:07:21;;;;;;;4.10;3.25;;;12.70;99.90;;;;;;1889119;76;21479;-77
2021/08/29 06:09:47;;;;;;;3.62;3.30;;;12.90;99.90;;;;;;1889233;76;21538;-77
2021/08/29 06:12:13;;;;;;;3.33;3.12;;;12.90;99.90;;;;;;1889038;76;21548;-77
2021/08/29 06:14:39;;;;;;;3.77;3.40;;;13.10;99.90;;;;;;1889068;76;21508;-77
2021/08/29 06:17:05;;;;;;;4.87;4.12;;;13.20;99.90;;;;;;1889044;76;21561;-77
2021/08/29 06:19:31;;;;;;;3.25;2.95;;;13.20;99.90;;;;;;1889056;76;21070;-77
2021/08/29 06:21:57;;;;;;;3.62;3.12;;;13.30;99.90;;;;;;1889082;76;21151;-77
2021/08/29 06:24:24;;;;;;;3.62;3.35;;;13.40;99.90;;;;;;1889046;76;21113;-77
2021/08/29 06:26:50;;;;;;;4.30;3.90;;;13.40;99.90;;;;;;1889074;76;21069;-77
2021/08/29 06:29:18;;;;;;;6.80;3.45;;;13.30;99.90;;;;;;1889065;76;21066;-77
2021/08/29 06:31:44;;;;;;;4.42;3.60;;;13.40;99.90;;;;;;1889125;75;21523;-77
2021/08/29 06:34:10;;;;;;;3.12;2.92;;;13.20;99.90;;;;;;1888972;76;21487;-77
2021/08/29 06:36:36;;;;;;;3.92;3.35;;;13.30;99.90;;;;;;1889162;76;21584;-77
2021/08/29 06:39:02;;;;;;;3.35;3.05;;;13.30;99.90;;;;;;1888950;76;21061;-77
2021/08/29 06:41:28;;;;;;;4.53;3.40;;;13.40;99.90;;;;;;1889094;76;21152;-77
2021/08/29 06:43:54;;;;;;;3.50;3.20;;;13.30;99.90;;;;;;1888970;76;21136;-77
2021/08/29 06:46:20;;;;;;;3.45;3.25;;;13.30;99.90;;;;;;1889137;76;21072;-77
2021/08/29 06:48:46;;;;;;;4.80;3.52;;;13.50;99.90;;;;;;1888949;75;21070;-77
2021/08/29 06:51:13;;;;;;;3.25;3.00;;;13.60;99.90;;;;;;1889099;76;21067;-77
2021/08/29 06:53:39;;;;;;;4.12;3.40;;;13.70;99.90;;;;;;1888910;76;21070;-77
2021/08/29 06:56:05;;;;;;;4.50;3.77;;;13.60;99.90;;;;;;1889111;76;21132;-77
2021/08/29 06:58:31;;;;;;;3.52;3.22;;;13.40;99.90;;;;;;1888958;76;21128;-77
2021/08/29 07:00:57;;;;;;;3.33;3.08;;;13.40;99.90;;;;;;1889059;76;21078;-77
2021/08/29 07:03:23;;;;;;;5.22;3.10;;;13.50;99.90;;;;;;1889035;76;21070;-77
2021/08/29 07:05:49;;;;;;;8.78;3.33;;;13.50;99.90;;;;;;1888919;76;21043;-77
2021/08/29 07:08:15;;;;;;;2.80;2.60;;;13.50;99.90;;;;;;1889012;76;21066;-77
2021/08/29 07:10:42;;;;;;;2.67;2.47;;;13.60;99.90;;;;;;1889021;76;21157;-77
2021/08/29 07:13:08;;;;;;;2.87;2.58;;;13.60;99.90;;;;;;1889027;76;21070;-77
2021/08/29 07:15:34;;;;;;;2.67;2.45;;;13.50;99.90;;;;;;1889032;76;21090;-77
2021/08/29 07:18:00;;;;;;;4.37;3.60;;;13.60;99.90;;;;;;1889036;75;21066;-77
2021/08/29 07:20:26;;;;;;;2.75;2.20;;;13.60;99.90;;;;;;1889011;76;21117;-77
2021/08/29 07:22:52;;;;;;;2.17;1.95;;;13.80;99.90;;;;;;1903237;74;21093;-77
2021/08/29 07:25:18;;;;;;;2.12;1.90;;;13.90;99.90;;;;;;1889105;76;21047;-77
2021/08/29 07:27:44;;;;;;;2.62;1.98;;;13.80;99.90;;;;;;1904217;74;21596;-77
2021/08/29 07:30:11;;;;;;;1.90;1.80;;;13.80;99.90;;;;;;1888911;76;21502;-77
2021/08/29 07:32:37;;;;;;;1.95;1.85;;;13.70;99.90;;;;;;1888847;75;21527;-77
2021/08/29 07:35:03;;;;;;;1.60;1.50;;;13.60;99.90;;;;;;1889241;76;21452;-77
2021/08/29 07:37:29;;;;;;;1.90;1.80;;;13.80;99.90;;;;;;1889048;76;21501;-77
2021/08/29 07:39:55;;;;;;;4.17;1.10;;;13.70;99.90;;;;;;1889319;76;21515;-77
2021/08/29 07:42:21;;;;;;;1.45;1.35;;;13.50;99.90;;;;;;1889075;76;21132;-77
2021/08/29 07:44:48;;;;;;;1.55;1.42;;;13.60;99.90;;;;;;1895963;74;21103;-77
2021/08/29 07:47:15;;;;;;;1.10;1.10;;;13.70;99.90;;;;;;1888956;76;21085;-77
2021/08/29 07:49:41;;;;;;;1.10;1.00;;;13.90;99.90;;;;;;1889282;76;21165;-77
2021/08/29 07:52:07;;;;;;;0.78;0.70;;;13.90;99.90;;;;;;1891432;74;21094;-77
2021/08/29 07:54:33;;;;;;;1.25;0.88;;;13.90;99.90;;;;;;1889408;76;21526;-76
2021/08/29 07:56:59;;;;;;;0.80;0.80;;;13.80;99.90;;;;;;1889213;75;21498;-76
2021/08/29 07:59:25;;;;;;;1.20;1.10;;;13.80;99.90;;;;;;1889504;76;21562;-76
2021/08/29 08:01:51;;;;;;;0.80;0.80;;;13.80;99.90;;;;;;1877168;76;21471;-76
2021/08/29 08:04:18;;;;;;;0.53;0.53;;;13.60;99.90;;;;;;1889518;76;21556;-76
2021/08/29 08:06:44;;;;;;;2.47;1.07;;;13.60;99.90;;;;;;1889383;76;21070;-77
2021/08/29 08:09:10;;;;;;;2.33;2.12;;;13.60;99.90;;;;;;1889441;76;21089;-76
2021/08/29 08:11:36;;;;;;;5.35;1.70;;;13.70;99.90;;;;;;1889453;76;21078;-76
2021/08/29 08:14:04;;;;;;;0.80;0.80;;;13.70;99.90;;;;;;1889602;76;21027;-76
2021/08/29 08:16:30;;;;;;;2.60;1.00;;;13.70;99.90;;;;;;1889290;75;21499;-77
2021/08/29 08:18:56;;;;;;;1.62;0.75;;;13.70;99.90;;;;;;1889439;76;21550;-76
2021/08/29 08:21:22;;;;;;;1.32;1.20;;;13.70;99.90;;;;;;1889331;76;21466;-76
2021/08/29 08:23:50;;;;;;;2.33;2.10;;;13.90;99.90;;;;;;1890008;76;21130;-76
2021/08/29 08:26:16;;;;;;;1.02;1.00;;;14.20;99.90;;;;;;1889241;76;21143;-77
2021/08/29 08:28:42;;;;;;;0.72;0.70;;;14.30;99.90;;;;;;1889315;76;21140;-76
2021/08/29 08:31:08;;;;;;;0.78;0.78;;;14.00;99.90;;;;;;1889086;76;21086;-76
2021/08/29 08:33:34;;;;;;;2.60;1.40;;;14.00;99.90;;;;;;1889262;76;21129;-75
2021/08/29 08:36:01;;;;;;;1.45;0.72;;;14.10;99.90;;;;;;1889240;76;21068;-75
2021/08/29 08:38:27;;;;;;;1.98;0.88;;;14.10;99.90;;;;;;1889197;75;21078;-77
2021/08/29 08:40:53;;;;;;;1.00;0.90;;;14.30;99.90;;;;;;1889161;76;21136;-75
2021/08/29 08:43:19;;;;;;;1.10;1.00;;;14.40;99.90;;;;;;1889160;76;21074;-76
2021/08/29 08:45:45;;;;;;;1.80;1.20;;;14.50;99.90;;;;;;1889197;76;21055;-76
2021/08/29 08:48:11;;;;;;;0.70;0.70;;;14.40;99.90;;;;;;1889196;76;21132;-76
2021/08/29 08:50:37;;;;;;;1.45;1.30;;;14.40;99.90;;;;;;1889317;76;21070;-76
2021/08/29 08:53:04;;;;;;;1.82;1.17;;;14.50;99.90;;;;;;1889301;76;21144;-76
2021/08/29 08:55:30;;;;;;;10.32;1.00;;;14.60;99.90;;;;;;1889171;76;21156;-76
2021/08/29 08:57:56;;;;;;;0.70;0.70;;;14.60;99.90;;;;;;1889297;76;21081;-75
2021/08/29 09:00:22;;;;;;;2.50;0.80;;;14.80;99.90;;;;;;1889220;76;21525;-76
2021/08/29 09:02:48;;;;;;;0.88;0.88;;;14.80;99.90;;;;;;1889212;76;21505;-76
2021/08/29 09:05:14;;;;;;;0.78;0.78;;;14.70;99.90;;;;;;1888993;76;21558;-77
2021/08/29 09:07:40;;;;;;;1.40;0.78;;;14.50;99.90;;;;;;1889461;76;21498;-76
2021/08/29 09:10:06;;;;;;;0.70;0.47;;;14.40;99.90;;;;;;1889065;76;21583;-75
2021/08/29 09:12:33;;;;;;;3.70;2.77;;;14.40;99.90;;;;;;1889503;76;21078;-75
2021/08/29 09:14:59;;;;;;;3.90;2.55;;;14.30;99.90;;;;;;1889150;76;21047;-76
2021/08/29 09:17:25;;;;;;;1.80;1.07;;;14.30;99.90;;;;;;1879107;76;21159;-77
2021/08/29 09:19:51;;;;;;;0.82;0.82;;;14.50;99.90;;;;;;1892807;76;21131;-78
2021/08/29 09:22:17;;;;;;;0.82;0.82;;;14.70;99.90;;;;;;1892660;76;21026;-75
2021/08/29 09:24:44;;;;;;;1.15;0.70;;;14.70;99.90;;;;;;1891537;76;21086;-74
2021/08/29 09:27:11;;;;;;;1.85;0.60;;;14.60;99.90;;;;;;1891905;76;21373;-76
2021/08/29 09:29:37;;;;;;;1.27;0.85;;;14.50;99.90;;;;;;1888996;76;21521;-75
2021/08/29 09:32:05;;;;;;;0.50;0.50;;;14.50;99.90;;;;;;1889235;76;21620;-77
2021/08/29 09:34:31;;;;;;;0.75;0.75;;;14.70;99.90;;;;;;1889033;76;21151;-77
2021/08/29 09:36:57;;;;;;;0.75;0.75;;;14.70;99.90;;;;;;1889110;76;21047;-77
2021/08/29 09:39:23;;;;;;;1.42;1.07;;;14.70;99.90;;;;;;1888938;76;21152;-78
2021/08/29 09:41:49;;;;;;;0.82;0.80;;;14.90;99.90;;;;;;1889177;76;21082;-77
2021/08/29 09:44:18;;;;;;;1.57;0.60;;;14.90;99.90;;;;;;1889969;76;21082;-77
2021/08/29 09:46:44;;;;;;;1.10;0.70;;;14.90;99.90;;;;;;1890567;75;21135;-77
2021/08/29 09:49:10;;;;;;;1.30;0.88;;;14.90;99.90;;;;;;1892889;75;20997;-77
2021/08/29 09:51:36;;;;;;;0.85;0.85;;;15.00;99.90;;;;;;1890579;75;21012;-77
2021/08/29 09:54:02;;;;;;;1.15;1.00;;;15.10;99.90;;;;;;1889091;76;21060;-76
2021/08/29 09:56:29;;;;;;;6.10;1.67;;;15.20;99.90;;;;;;1889143;76;21063;-77
2021/08/29 09:58:56;;;;;;;1.12;0.62;;;15.20;99.90;;;;;;1889084;76;21520;-77
2021/08/29 10:01:22;;;;;;;0.60;0.60;;;15.20;99.90;;;;;;1889070;76;21080;-78
2021/08/29 10:03:48;;;;;;;0.80;0.80;;;15.20;99.90;;;;;;1889106;76;21064;-77
2021/08/29 10:06:15;;;;;;;0.95;0.75;;;15.10;99.90;;;;;;1888990;76;21182;-77
2021/08/29 10:08:41;;;;;;;0.95;0.68;;;15.10;99.90;;;;;;1889023;76;21142;-77
2021/08/29 10:11:07;;;;;;;7.12;0.93;;;15.20;99.90;;;;;;1889075;75;21507;-76
2021/08/29 10:13:33;;;;;;;0.62;0.62;;;15.20;99.90;;;;;;1889038;75;21057;-77
2021/08/29 10:15:59;;;;;;;1.35;0.75;;;15.10;99.90;;;;;;1892077;75;21087;-77
2021/08/29 10:18:25;;;;;;;0.80;0.80;;;15.40;99.90;;;;;;1889418;75;21185;-76
2021/08/29 10:20:51;;;;;;;0.80;0.80;;;15.60;99.90;;;;;;1901728;75;21153;-77
2021/08/29 10:23:18;;;;;;;0.50;0.50;;;15.80;99.90;;;;;;1889031;75;21072;-77
2021/08/29 10:25:44;;;;;;;0.40;0.40;;;15.70;99.90;;;;;;1889063;76;21076;-77
2021/08/29 10:28:10;;;;;;;1.00;0.65;;;15.90;99.90;;;;;;1888994;76;21072;-76
2021/08/29 10:30:36;;;;;;;0.30;0.30;;;15.60;99.90;;;;;;1888976;76;21123;-77
2021/08/29 10:33:02;;;;;;;0.50;0.30;;;15.30;99.90;;;;;;1900896;75;21086;-77
2021/08/29 10:35:28;;;;;;;0.70;0.40;;;15.10;99.90;;;;;;1889025;76;21080;-77
2021/08/29 10:37:54;;;;;;;0.60;0.60;;;15.30;99.90;;;;;;1889025;76;21079;-77
2021/08/29 10:40:20;;;;;;;0.50;0.50;;;15.30;99.90;;;;;;1889111;76;21052;-76
2021/08/29 10:42:47;;;;;;;0.40;0.40;;;15.20;99.90;;;;;;1889064;76;21147;-76
2021/08/29 10:45:13;;;;;;;0.25;0.25;;;15.20;99.90;;;;;;1888914;76;21075;-76
2021/08/29 10:47:39;;;;;;;0.50;0.50;;;15.10;99.90;;;;;;1889178;76;21075;-77
2021/08/29 10:50:05;;;;;;;0.47;0.47;;;15.20;99.90;;;;;;1888900;76;21217;-75
2021/08/29 10:52:31;;;;;;;0.50;0.50;;;15.40;99.90;;;;;;1889092;76;21146;-76
2021/08/29 10:54:57;;;;;;;0.50;0.50;;;15.70;99.90;;;;;;1888888;76;21083;-77
2021/08/29 10:57:23;;;;;;;0.30;0.30;;;15.80;99.90;;;;;;1889198;76;21091;-76
2021/08/29 10:59:49;;;;;;;0.42;0.42;;;15.40;99.90;;;;;;1888918;76;21092;-75
2021/08/29 11:02:16;;;;;;;0.40;0.40;;;15.40;99.90;;;;;;1889026;75;21212;-77
2021/08/29 11:04:42;;;;;;;0.85;0.50;;;15.30;99.90;;;;;;1889095;76;21548;-76
2021/08/29 11:07:08;;;;;;;0.40;0.40;;;15.30;99.90;;;;;;1889360;76;21502;-76
2021/08/29 11:09:37;;;;;;;0.70;0.70;;;15.30;99.90;;;;;;1889321;76;21554;-76
2021/08/29 11:12:03;;;;;;;0.40;0.40;;;15.30;99.90;;;;;;1889390;75;21139;-76
2021/08/29 11:14:29;;;;;;;0.57;0.50;;;15.20;99.90;;;;;;1889362;76;21458;-75
2021/08/29 11:16:55;;;;;;;1.07;0.55;;;15.00;99.90;;;;;;1889318;76;21527;-74
2021/08/29 11:19:23;;;;;;;0.50;0.50;;;15.20;99.90;;;;;;1889302;75;21079;-75
2021/08/29 11:21:49;;;;;;;0.50;0.50;;;15.30;99.90;;;;;;1889342;76;21109;-75
2021/08/29 11:24:15;;;;;;;0.62;0.42;;;15.50;99.90;;;;;;1889198;76;21092;-75
2021/08/29 11:26:41;;;;;;;3.08;1.75;;;15.50;99.90;;;;;;1889326;76;21076;-75
2021/08/29 11:29:07;;;;;;;0.72;0.72;;;15.30;99.90;;;;;;1889225;76;21080;-75
2021/08/29 11:31:33;;;;;;;0.50;0.50;;;15.30;99.90;;;;;;1889379;76;21088;-75
2021/08/29 11:34:00;;;;;;;0.40;0.40;;;14.90;99.90;;;;;;1889031;76;21056;-76
2021/08/29 11:36:26;;;;;;;1.37;0.60;;;15.00;99.90;;;;;;1889226;76;21099;-76
2021/08/29 11:38:52;;;;;;;0.37;0.33;;;15.10;99.90;;;;;;1888998;76;21149;-76
2021/08/29 11:41:18;;;;;;;0.60;0.55;;;14.90;99.90;;;;;;1889224;76;21149;-76
2021/08/29 11:43:44;;;;;;;2.50;0.60;;;15.00;99.90;;;;;;1889044;76;21142;-77
2021/08/29 11:46:11;;;;;;;6.97;1.17;;;15.20;99.90;;;;;;1889287;76;21138;-77
2021/08/29 11:48:38;;;;;;;0.42;0.42;;;15.00;99.90;;;;;;1889153;76;21061;-76
2021/08/29 11:51:04;;;;;;;0.55;0.40;;;15.10;99.90;;;;;;1889321;76;21077;-76
2021/08/29 11:53:30;;;;;;;2.62;0.60;;;15.10;99.90;;;;;;1889100;76;21528;-76
2021/08/29 11:55:56;;;;;;;1.40;0.50;;;15.10;99.90;;;;;;1889069;76;21519;-76
2021/08/29 11:58:23;;;;;;;0.40;0.40;;;14.90;99.90;;;;;;1889167;76;21535;-74
2021/08/29 12:00:49;;;;;;;0.57;0.57;;;14.80;99.90;;;;;;1889342;76;21186;-76
2021/08/29 12:03:16;;;;;;;0.70;0.70;;;14.90;99.90;;;;;;1889420;75;21129;-76
2021/08/29 12:05:42;;;;;;;3.42;1.62;;;15.10;99.90;;;;;;1889295;76;21504;-77
2021/08/29 12:08:08;;;;;;;1.20;1.10;;;15.20;99.90;;;;;;1889425;76;21500;-76
2021/08/29 12:10:34;;;;;;;0.53;0.53;;;15.20;99.90;;;;;;1889297;76;21499;-77
2021/08/29 12:13:00;;;;;;;2.08;0.95;;;15.20;99.90;;;;;;1889167;76;21516;-77
2021/08/29 12:15:26;;;;;;;3.25;0.72;;;15.10;99.90;;;;;;1889201;76;21080;-77
2021/08/29 12:17:55;;;;;;;0.70;0.70;;;15.10;99.90;;;;;;1889198;76;21080;-77
2021/08/29 12:20:20;;;;;;;0.78;0.78;;;15.00;99.90;;;;;;1889075;75;21116;-77
2021/08/29 12:22:46;;;;;;;0.65;0.62;;;15.10;99.90;;;;;;1889181;76;21053;-77
2021/08/29 12:25:12;;;;;;;0.55;0.55;;;15.00;99.90;;;;;;1889179;76;21581;-76
2021/08/29 12:27:39;;;;;;;1.25;0.90;;;15.10;99.90;;;;;;1889282;76;21109;-76
2021/08/29 12:30:06;;;;;;;0.60;0.60;;;15.10;99.90;;;;;;1889234;75;21080;-74
2021/08/29 12:32:32;;;;;;;2.55;1.40;;;15.20;99.90;;;;;;1889148;76;21095;-77
2021/08/29 12:35:02;;;;;;;0.90;0.90;;;15.20;99.90;;;;;;1889258;76;21081;-77
2021/08/29 12:37:28;;;;;;;1.87;1.10;;;15.10;99.90;;;;;;1889218;75;21508;-77
2021/08/29 12:39:54;;;;;;;1.70;1.60;;;15.20;99.90;;;;;;1889195;76;21511;-76